Time;durP1;ratioP1;P1;durP2;ratioP2;P2;SDS_P1;SDS_P2;PMS_P1;PMS_P2;Temp;Humidity;BMP_temperature;BMP_pressure;BME280_temperature;BME280_humidity;BME280_pressure;Samples;Min_cycle;Max_cycle;Signal;HPM_P1;HPM_P2
2023/06/23 14:45:37;;;;;;;85.80;6.50;;;;;;;-148.24;0.00;102409.03;5066424;27;20398;-56
2023/06/23 14:48:03;;;;;;;60.30;5.65;;;;;;;-148.24;0.00;102409.03;5057349;28;20116;-57
2023/06/23 14:50:29;;;;;;;56.72;5.10;;;;;;;-148.24;0.00;102409.03;5060126;28;20056;-56
2023/06/23 14:52:54;;;;;;;54.42;4.80;;;;;;;-148.24;0.00;102409.03;5059452;28;20095;-57
2023/06/23 14:55:20;;;;;;;78.85;7.10;;;;;;;-148.24;0.00;102409.03;5058720;28;20062;-57
2023/06/23 14:57:45;;;;;;;40.83;4.85;;;;;;;-148.24;0.00;102409.03;5057861;28;20112;-56
2023/06/23 15:00:11;;;;;;;102.43;9.57;;;;;;;-148.24;0.00;102409.03;5056352;28;20020;-55
2023/06/23 15:02:36;;;;;;;55.33;5.68;;;;;;;-148.24;0.00;102409.03;5059835;28;20998;-57
2023/06/23 15:05:02;;;;;;;72.82;6.82;;;;;;;-148.24;0.00;102409.03;5059383;28;20559;-57
2023/06/23 15:07:27;;;;;;;49.25;5.43;;;;;;;-148.24;0.00;102409.03;5059953;28;20039;-58
2023/06/23 15:09:53;;;;;;;41.47;4.43;;;;;;;-148.24;0.00;102409.03;5061393;28;20041;-57
2023/06/23 15:12:19;;;;;;;100.03;9.02;;;;;;;-148.24;0.00;102409.03;5057979;28;20102;-58
2023/06/23 15:14:44;;;;;;;48.20;5.05;;;;;;;-148.24;0.00;102409.03;5059763;28;20024;-57
2023/06/23 15:17:10;;;;;;;77.10;7.78;;;;;;;-148.24;0.00;102409.03;5059199;28;20066;-56
2023/06/23 15:19:36;;;;;;;48.42;4.82;;;;;;;-148.24;0.00;102409.03;5060202;28;20029;-56
2023/06/23 15:22:03;;;;;;;42.97;4.85;;;;;;;-148.24;0.00;102409.03;5058652;28;20197;-55
2023/06/23 15:24:29;;;;;;;40.95;5.00;;;;;;;-148.24;0.00;102409.03;5056749;28;20032;-56
2023/06/23 15:26:55;;;;;;;57.72;5.35;;;;;;;-148.24;0.00;102409.03;5059377;28;20060;-56
2023/06/23 15:29:20;;;;;;;56.25;5.78;;;;;;;-148.24;0.00;102409.03;5058573;28;20115;-55
2023/06/23 15:31:46;;;;;;;61.10;5.88;;;;;;;-148.24;0.00;102409.03;5058581;28;20059;-57
2023/06/23 15:34:11;;;;;;;99.07;9.68;;;;;;;-148.24;0.00;102409.03;5057734;28;20025;-56
2023/06/23 15:36:37;;;;;;;51.13;5.57;;;;;;;-148.24;0.00;102409.03;5056569;28;20059;-57
2023/06/23 15:39:02;;;;;;;54.30;5.50;;;;;;;-148.24;0.00;102409.03;5059902;28;20027;-57
2023/06/23 15:41:28;;;;;;;53.20;5.18;;;;;;;-148.24;0.00;102409.03;5057432;28;20060;-57
2023/06/23 15:43:53;;;;;;;47.90;5.00;;;;;;;-148.24;0.00;102409.03;5058846;28;20037;-55
2023/06/23 15:46:19;;;;;;;74.15;7.05;;;;;;;-148.24;0.00;102409.03;5055927;28;20417;-57
2023/06/23 15:48:45;;;;;;;58.90;5.70;;;;;;;-148.24;0.00;102409.03;5058385;28;20069;-56
2023/06/23 15:51:10;;;;;;;65.45;7.03;;;;;;;-148.24;0.00;102409.03;5060764;28;20036;-56
2023/06/23 15:53:37;;;;;;;38.10;4.75;;;;;;;-148.24;0.00;102409.03;5058075;28;20107;-56
2023/06/23 15:56:04;;;;;;;81.30;7.50;;;;;;;-148.24;0.00;102409.03;5048390;28;20134;-55
2023/06/23 15:58:29;;;;;;;52.38;5.75;;;;;;;-148.24;0.00;102409.03;5043256;28;20024;-55
2023/06/23 16:00:55;;;;;;;40.45;4.97;;;;;;;-148.24;0.00;102409.03;5045767;28;20040;-55
2023/06/23 16:03:20;;;;;;;92.40;9.48;;;;;;;-148.24;0.00;102409.03;5044489;28;20040;-56
2023/06/23 16:05:46;;;;;;;39.95;4.60;;;;;;;-148.24;0.00;102409.03;5049791;28;20033;-56
2023/06/23 16:08:12;;;;;;;54.53;6.05;;;;;;;-148.24;0.00;102409.03;5064318;28;20083;-56
2023/06/23 16:10:38;;;;;;;58.72;6.35;;;;;;;-148.24;0.00;102409.03;5063700;28;20059;-56
2023/06/23 16:13:03;;;;;;;44.55;5.28;;;;;;;-148.24;0.00;102409.03;5048516;28;20032;-55
2023/06/23 16:15:29;;;;;;;50.40;5.70;;;;;;;-148.24;0.00;102409.03;5047267;28;20652;-54
2023/06/23 16:17:54;;;;;;;46.88;5.32;;;;;;;-148.24;0.00;102409.03;5066352;28;20024;-55
2023/06/23 16:20:20;;;;;;;73.80;7.72;;;;;;;-148.24;0.00;102409.03;5063148;28;20033;-56
2023/06/23 16:22:46;;;;;;;45.80;5.07;;;;;;;-148.24;0.00;102409.03;5047479;28;20021;-57
2023/06/23 16:25:11;;;;;;;54.60;6.72;;;;;;;-148.24;0.00;102409.03;5045593;28;20025;-55
2023/06/23 16:27:37;;;;;;;49.65;5.68;;;;;;;-148.24;0.00;102409.03;5065464;28;20024;-57
2023/06/23 16:30:03;;;;;;;45.03;5.32;;;;;;;-148.24;0.00;102409.03;5064979;28;20569;-58
2023/06/23 16:32:29;;;;;;;67.60;7.20;;;;;;;-148.24;0.00;102409.03;5046498;28;20045;-55
2023/06/23 16:34:58;;;;;;;45.88;5.70;;;;;;;-148.24;0.00;102409.03;5045357;28;20027;-57
2023/06/23 16:37:26;;;;;;;99.65;9.10;;;;;;;-148.24;0.00;102409.03;5061283;28;20048;-57
2023/06/23 16:39:52;;;;;;;70.45;6.93;;;;;;;-148.24;0.00;102409.03;5066958;28;20029;-58
2023/06/23 16:42:18;;;;;;;100.18;9.02;;;;;;;-148.24;0.00;102409.03;5046226;28;20139;-58
2023/06/23 16:44:43;;;;;;;79.82;7.35;;;;;;;-148.24;0.00;102409.03;5045353;28;20033;-55
2023/06/23 16:47:10;;;;;;;68.90;6.68;;;;;;;-148.24;0.00;102409.03;5044817;28;20047;-55
2023/06/23 16:49:35;;;;;;;70.50;7.60;;;;;;;-148.24;0.00;102409.03;5044802;28;20028;-56
2023/06/23 16:52:01;;;;;;;76.65;7.43;;;;;;;-148.24;0.00;102409.03;5059274;28;20090;-57
2023/06/23 16:54:27;;;;;;;112.40;10.40;;;;;;;-148.24;0.00;102409.03;5064019;28;20024;-56
2023/06/23 16:56:52;;;;;;;71.15;6.82;;;;;;;-148.24;0.00;102409.03;5046747;28;20040;-54
2023/06/23 16:59:17;;;;;;;110.75;9.65;;;;;;;-148.24;0.00;102409.03;5043282;28;20044;-56
2023/06/23 17:01:43;;;;;;;89.65;8.20;;;;;;;-148.24;0.00;102409.03;5055830;28;20039;-56
2023/06/23 17:04:13;;;;;;;73.68;7.40;;;;;;;-148.24;0.00;102409.03;5065239;28;20028;-55
2023/06/23 17:06:40;;;;;;;84.75;7.68;;;;;;;-148.24;0.00;102409.03;5047866;28;20178;-53
2023/06/23 17:09:05;;;;;;;76.03;7.40;;;;;;;-148.24;0.00;102409.03;5044023;28;20056;-55
2023/06/23 17:11:30;;;;;;;84.63;9.52;;;;;;;-148.24;0.00;102409.03;5055511;28;20467;-53
2023/06/23 17:13:56;;;;;;;76.13;7.25;;;;;;;-148.24;0.00;102409.03;5062166;28;20016;-54
2023/06/23 17:16:21;;;;;;;104.53;9.60;;;;;;;-148.24;0.00;102409.03;5060856;28;20464;-54
2023/06/23 17:18:47;;;;;;;75.65;7.65;;;;;;;-148.24;0.00;102409.03;5063968;28;20479;-53
2023/06/23 17:21:12;;;;;;;67.80;6.78;;;;;;;-148.24;0.00;102409.03;5053578;28;20465;-52
2023/06/23 17:23:37;;;;;;;75.53;7.85;;;;;;;-148.24;0.00;102409.03;5049801;28;20616;-51
2023/06/23 17:26:03;;;;;;;112.63;9.48;;;;;;;-148.24;0.00;102409.03;5049228;28;20051;-55
2023/06/23 17:28:28;;;;;;;119.32;11.43;;;;;;;-148.24;0.00;102409.03;5062845;28;20035;-56
2023/06/23 17:30:53;;;;;;;46.47;5.95;;;;;;;-148.24;0.00;102409.03;5062335;28;20390;-57
2023/06/23 17:33:19;;;;;;;102.35;9.73;;;;;;;-148.24;0.00;102409.03;5061193;28;20043;-57
2023/06/23 17:35:44;;;;;;;82.10;7.82;;;;;;;-148.24;0.00;102409.03;5060403;28;20036;-55
2023/06/23 17:38:10;;;;;;;84.63;8.13;;;;;;;-148.24;0.00;102409.03;5062598;28;20436;-54
2023/06/23 17:40:35;;;;;;;81.32;8.07;;;;;;;-148.24;0.00;102409.03;5059957;28;20414;-56
2023/06/23 17:43:00;;;;;;;68.32;7.15;;;;;;;-148.24;0.00;102409.03;5062818;28;20063;-55
2023/06/23 17:45:28;;;;;;;102.30;9.38;;;;;;;-148.24;0.00;102409.03;5064070;28;20158;-56
2023/06/23 17:47:53;;;;;;;84.72;7.95;;;;;;;-148.24;0.00;102409.03;5063337;28;20028;-55
2023/06/23 17:50:19;;;;;;;95.65;9.70;;;;;;;-148.24;0.00;102409.03;5063654;28;20338;-56
2023/06/23 17:52:45;;;;;;;67.90;7.15;;;;;;;-148.24;0.00;102409.03;5067002;28;20023;-57
2023/06/23 17:55:10;;;;;;;104.93;9.93;;;;;;;-148.24;0.00;102409.03;5060559;28;20018;-55
2023/06/23 17:57:35;;;;;;;78.43;7.93;;;;;;;-148.24;0.00;102409.03;5062483;28;20016;-57
2023/06/23 18:00:01;;;;;;;70.22;7.05;;;;;;;-148.24;0.00;102409.03;5064055;28;20594;-57
2023/06/23 18:02:26;;;;;;;131.85;12.55;;;;;;;-148.24;0.00;102409.03;5060329;28;20040;-58
2023/06/23 18:04:52;;;;;;;69.00;7.43;;;;;;;-148.24;0.00;102409.03;5062213;28;20027;-55
2023/06/23 18:07:17;;;;;;;72.30;7.63;;;;;;;-148.24;0.00;102409.03;5060173;28;20403;-57
2023/06/23 18:09:43;;;;;;;84.03;8.93;;;;;;;-148.24;0.00;102409.03;5062213;28;20039;-59
2023/06/23 18:12:08;;;;;;;72.95;8.18;;;;;;;-148.24;0.00;102409.03;5062737;28;20092;-56
2023/06/23 18:14:34;;;;;;;107.47;10.20;;;;;;;-148.24;0.00;102409.03;5062460;28;20409;-58
2023/06/23 18:17:00;;;;;;;76.05;8.45;;;;;;;-148.24;0.00;102409.03;5060813;28;20107;-57
2023/06/23 18:19:25;;;;;;;106.38;10.38;;;;;;;-148.24;0.00;102409.03;5061390;28;20036;-56
2023/06/23 18:21:51;;;;;;;69.18;8.40;;;;;;;-148.24;0.00;102409.03;5061577;28;20081;-59
2023/06/23 18:24:17;;;;;;;77.03;7.75;;;;;;;-148.24;0.00;102409.03;5061041;28;20016;-55
2023/06/23 18:26:43;;;;;;;61.20;7.30;;;;;;;-148.24;0.00;102409.03;5060703;28;20078;-57
2023/06/23 18:29:08;;;;;;;97.43;9.73;;;;;;;-148.24;0.00;102409.03;5062140;28;20028;-56
2023/06/23 18:31:34;;;;;;;115.68;11.63;;;;;;;-148.24;0.00;102409.03;5058647;28;20716;-56
2023/06/23 18:33:59;;;;;;;78.05;8.50;;;;;;;-148.24;0.00;102409.03;5061294;28;20360;-57
2023/06/23 18:36:25;;;;;;;105.20;10.27;;;;;;;-148.24;0.00;102409.03;5060333;28;20469;-56
2023/06/23 18:38:50;;;;;;;61.10;6.90;;;;;;;-148.24;0.00;102409.03;5063163;28;20421;-57
2023/06/23 18:41:16;;;;;;;70.05;8.05;;;;;;;-148.24;0.00;102409.03;5061565;28;20036;-56
2023/06/23 18:43:41;;;;;;;89.80;9.60;;;;;;;-148.24;0.00;102409.03;5059650;28;20028;-56
2023/06/23 18:46:07;;;;;;;109.25;10.07;;;;;;;-148.24;0.00;102409.03;5062288;28;20047;-55
2023/06/23 18:48:33;;;;;;;115.70;11.98;;;;;;;-148.24;0.00;102409.03;5061002;28;20235;-56
2023/06/23 18:51:00;;;;;;;73.80;8.63;;;;;;;-148.24;0.00;102409.03;5059996;28;20043;-54
2023/06/23 18:53:31;;;;;;;86.70;9.85;;;;;;;-148.24;0.00;102409.03;5061737;28;20908;-55
2023/06/23 18:56:00;;;;;;;94.95;11.50;;;;;;;-148.24;0.00;102409.03;5058834;28;20039;-55
2023/06/23 18:58:26;;;;;;;106.00;10.75;;;;;;;-148.24;0.00;102409.03;5059544;28;20111;-55
2023/06/23 19:00:52;;;;;;;52.47;7.35;;;;;;;-148.24;0.00;102409.03;5064281;28;20078;-55
2023/06/23 19:03:17;;;;;;;64.30;8.45;;;;;;;-148.24;0.00;102409.03;5061605;28;20050;-54
2023/06/23 19:05:43;;;;;;;65.78;7.68;;;;;;;-148.24;0.00;102409.03;5057670;28;20569;-54
2023/06/23 19:08:08;;;;;;;60.95;6.90;;;;;;;-148.24;0.00;102409.03;5062116;28;20029;-57
2023/06/23 19:10:34;;;;;;;106.05;10.98;;;;;;;-148.24;0.00;102409.03;5060081;28;20108;-55
2023/06/23 19:12:59;;;;;;;47.03;6.20;;;;;;;-148.24;0.00;102409.03;5062028;28;20032;-56
2023/06/23 19:15:24;;;;;;;96.10;10.65;;;;;;;-148.24;0.00;102409.03;5058808;28;20067;-54
2023/06/23 19:17:50;;;;;;;66.00;7.10;;;;;;;-148.24;0.00;102409.03;5065972;28;20028;-58
2023/06/23 19:20:15;;;;;;;57.70;6.93;;;;;;;-148.24;0.00;102409.03;5066899;28;20039;-57
2023/06/23 19:22:41;;;;;;;47.45;6.32;;;;;;;-148.24;0.00;102409.03;5066466;28;20032;-56
2023/06/23 19:25:07;;;;;;;76.97;7.78;;;;;;;-148.24;0.00;102409.03;5066866;28;20029;-59
2023/06/23 19:27:32;;;;;;;111.43;10.77;;;;;;;-148.24;0.00;102409.03;5066061;28;20051;-58
2023/06/23 19:29:58;;;;;;;39.80;5.50;;;;;;;-148.24;0.00;102409.03;5067916;28;20063;-57
2023/06/23 19:32:23;;;;;;;100.38;9.70;;;;;;;-148.24;0.00;102409.03;5065472;28;20360;-58
2023/06/23 19:34:49;;;;;;;77.10;8.35;;;;;;;-148.24;0.00;102409.03;5067750;28;20016;-56
2023/06/23 19:37:14;;;;;;;76.03;8.55;;;;;;;-148.24;0.00;102409.03;5064837;28;20492;-56
2023/06/23 19:39:39;;;;;;;95.70;9.98;;;;;;;-148.24;0.00;102409.03;5065996;28;20054;-58
2023/06/23 19:42:05;;;;;;;73.75;8.23;;;;;;;-148.24;0.00;102409.03;5066207;28;20473;-56
2023/06/23 19:44:30;;;;;;;114.65;10.82;;;;;;;-148.24;0.00;102409.03;5064873;28;20028;-58
2023/06/23 19:46:56;;;;;;;91.32;9.07;;;;;;;-148.24;0.00;102409.03;5066012;28;20090;-58
2023/06/23 19:49:22;;;;;;;72.88;7.53;;;;;;;-148.24;0.00;102409.03;5063372;28;20283;-54
2023/06/23 19:51:50;;;;;;;81.22;8.20;;;;;;;-148.24;0.00;102409.03;5064839;28;20037;-58
2023/06/23 19:54:18;;;;;;;75.93;8.23;;;;;;;-148.24;0.00;102409.03;5064340;28;20032;-58
2023/06/23 19:56:44;;;;;;;71.25;8.32;;;;;;;-148.24;0.00;102409.03;5061748;28;20286;-55
2023/06/23 19:59:09;;;;;;;100.35;9.95;;;;;;;-148.24;0.00;102409.03;5064767;28;20306;-57
2023/06/23 20:01:35;;;;;;;116.32;11.73;;;;;;;-148.24;0.00;102409.03;5063557;28;20037;-55
2023/06/23 20:04:00;;;;;;;62.05;7.78;;;;;;;-148.24;0.00;102409.03;5066514;28;20025;-56
2023/06/23 20:06:26;;;;;;;100.82;10.38;;;;;;;-148.24;0.00;102409.03;5059613;28;20036;-58
2023/06/23 20:08:54;;;;;;;57.05;7.15;;;;;;;-148.24;0.00;102409.03;5064007;28;20033;-56
2023/06/23 20:11:19;;;;;;;77.55;8.15;;;;;;;-148.24;0.00;102409.03;5063804;28;20082;-58
2023/06/23 20:13:45;;;;;;;76.35;8.35;;;;;;;-148.24;0.00;102409.03;5064025;28;20555;-54
2023/06/23 20:16:11;;;;;;;76.72;8.07;;;;;;;-148.24;0.00;102409.03;5062580;28;20036;-54
2023/06/23 20:18:36;;;;;;;114.72;11.40;;;;;;;-148.24;0.00;102409.03;5066646;28;20043;-57
2023/06/23 20:21:02;;;;;;;77.95;9.13;;;;;;;-148.24;0.00;102409.03;5065654;28;20081;-56
2023/06/23 20:23:29;;;;;;;90.30;9.68;;;;;;;-148.24;0.00;102409.03;5062255;28;20024;-55
2023/06/23 20:25:56;;;;;;;80.22;8.30;;;;;;;-148.24;0.00;102409.03;5064826;28;20037;-57
2023/06/23 20:28:22;;;;;;;63.05;7.68;;;;;;;-148.24;0.00;102409.03;5065567;28;20035;-58
2023/06/23 20:30:47;;;;;;;52.15;7.32;;;;;;;-148.24;0.00;102409.03;5063001;28;20117;-56
2023/06/23 20:33:12;;;;;;;45.78;10.48;;;;;;;-148.24;0.00;102409.03;5062201;28;20032;-57
2023/06/23 20:35:38;;;;;;;103.25;10.48;;;;;;;-148.24;0.00;102409.03;5062501;28;20364;-58
2023/06/23 20:38:03;;;;;;;47.50;6.05;;;;;;;-148.24;0.00;102409.03;5067103;28;20023;-56
2023/06/23 20:40:29;;;;;;;98.18;10.55;;;;;;;-148.24;0.00;102409.03;5064270;28;20508;-58
2023/06/23 20:42:54;;;;;;;61.47;7.47;;;;;;;-148.24;0.00;102409.03;5063577;28;20033;-55
2023/06/23 20:45:21;;;;;;;51.10;7.13;;;;;;;-148.24;0.00;102409.03;5064949;28;20067;-55
2023/06/23 20:47:47;;;;;;;39.10;6.10;;;;;;;-148.24;0.00;102409.03;5061538;28;20055;-57
2023/06/23 20:50:12;;;;;;;53.95;6.85;;;;;;;-148.24;0.00;102409.03;5064525;28;20133;-58
2023/06/23 20:52:38;;;;;;;106.70;10.70;;;;;;;-148.24;0.00;102409.03;5063056;28;20071;-57
2023/06/23 20:55:04;;;;;;;72.15;8.25;;;;;;;-148.24;0.00;102409.03;5063925;28;20027;-57
2023/06/23 20:57:29;;;;;;;82.88;8.90;;;;;;;-148.24;0.00;102409.03;5062583;28;20167;-57
2023/06/23 20:59:55;;;;;;;48.53;6.93;;;;;;;-148.24;0.00;102409.03;5065508;28;20029;-55
2023/06/23 21:02:20;;;;;;;60.25;7.03;;;;;;;-148.24;0.00;102409.03;5045825;28;20033;-55
2023/06/23 21:04:45;;;;;;;60.65;7.53;;;;;;;-148.24;0.00;102409.03;5043513;28;20128;-55
2023/06/23 21:07:11;;;;;;;50.03;6.93;;;;;;;-148.24;0.00;102409.03;5041731;28;20024;-56
2023/06/23 21:09:36;;;;;;;100.63;10.48;;;;;;;-148.24;0.00;102409.03;5041342;28;20462;-56
2023/06/23 21:12:02;;;;;;;59.28;7.10;;;;;;;-148.24;0.00;102409.03;5059886;28;20606;-57
2023/06/23 21:14:28;;;;;;;65.30;7.90;;;;;;;-148.24;0.00;102409.03;5063978;28;20461;-55
2023/06/23 21:16:53;;;;;;;50.33;7.10;;;;;;;-148.24;0.00;102409.03;5048784;28;21005;-57
2023/06/23 21:19:18;;;;;;;51.60;7.10;;;;;;;-148.24;0.00;102409.03;5045065;28;20059;-55
2023/06/23 21:21:44;;;;;;;100.80;10.82;;;;;;;-148.24;0.00;102409.03;5055898;28;20480;-56
2023/06/23 21:24:09;;;;;;;62.40;7.78;;;;;;;-148.24;0.00;102409.03;5064129;28;20051;-55
2023/06/23 21:26:38;;;;;;;103.65;10.93;;;;;;;-148.24;0.00;102409.03;5049755;28;20052;-54
2023/06/23 21:29:03;;;;;;;43.42;6.75;;;;;;;-148.24;0.00;102409.03;5043266;28;20025;-56
2023/06/23 21:31:29;;;;;;;64.22;8.07;;;;;;;-148.24;0.00;102409.03;5052061;28;20406;-57
2023/06/23 21:33:54;;;;;;;58.25;7.68;;;;;;;-148.24;0.00;102409.03;5064721;28;20051;-55
2023/06/23 21:36:20;;;;;;;46.78;6.65;;;;;;;-148.24;0.00;102409.03;5053813;28;20044;-57
2023/06/23 21:38:45;;;;;;;110.63;11.43;;;;;;;-148.24;0.00;102409.03;5041476;28;20075;-58
2023/06/23 21:41:11;;;;;;;55.50;7.32;;;;;;;-148.24;0.00;102409.03;5043376;28;20310;-55
2023/06/23 21:43:36;;;;;;;110.65;11.20;;;;;;;-148.24;0.00;102409.03;5040162;28;20055;-56
2023/06/23 21:46:02;;;;;;;112.93;10.75;;;;;;;-148.24;0.00;102409.03;5043108;28;20102;-57
2023/06/23 21:48:27;;;;;;;50.38;7.03;;;;;;;-148.24;0.00;102409.03;5042775;28;20029;-58
2023/06/23 21:50:52;;;;;;;44.70;6.65;;;;;;;-148.24;0.00;102409.03;5041742;28;20033;-56
2023/06/23 21:53:18;;;;;;;71.13;8.27;;;;;;;-148.24;0.00;102409.03;5042340;28;20465;-57
2023/06/23 21:55:43;;;;;;;93.32;10.20;;;;;;;-148.24;0.00;102409.03;5043694;28;20044;-57
2023/06/23 21:58:09;;;;;;;58.22;7.57;;;;;;;-148.24;0.00;102409.03;5043719;28;20033;-56
2023/06/23 22:00:34;;;;;;;90.50;9.77;;;;;;;-148.24;0.00;102409.03;5042541;28;20037;-56
2023/06/23 22:03:02;;;;;;;48.47;7.32;;;;;;;-148.24;0.00;102409.03;5044764;28;20131;-57
2023/06/23 22:05:27;;;;;;;59.13;7.35;;;;;;;-148.24;0.00;102409.03;5044351;28;20098;-56
2023/06/23 22:07:53;;;;;;;56.13;8.15;;;;;;;-148.24;0.00;102409.03;5040385;28;20296;-56
2023/06/23 22:10:18;;;;;;;56.33;7.68;;;;;;;-148.24;0.00;102409.03;5043134;28;20050;-58
2023/06/23 22:12:44;;;;;;;93.65;10.93;;;;;;;-148.24;0.00;102409.03;5041293;28;20689;-54
2023/06/23 22:15:09;;;;;;;68.25;8.98;;;;;;;-148.24;0.00;102409.03;5041671;28;20025;-57
2023/06/23 22:17:34;;;;;;;98.82;11.55;;;;;;;-148.24;0.00;102409.03;5040149;28;20016;-55
2023/06/23 22:20:00;;;;;;;64.07;8.85;;;;;;;-148.24;0.00;102409.03;5043287;28;20597;-56
2023/06/23 22:22:26;;;;;;;57.63;8.02;;;;;;;-148.24;0.00;102409.03;5042072;28;20468;-56
2023/06/23 22:24:51;;;;;;;54.70;7.95;;;;;;;-148.24;0.00;102409.03;5041046;28;20091;-56
2023/06/23 22:27:17;;;;;;;62.10;8.88;;;;;;;-148.24;0.00;102409.03;5041193;28;20040;-55
2023/06/23 22:29:42;;;;;;;106.47;12.35;;;;;;;-148.24;0.00;102409.03;5039655;28;20025;-54
2023/06/23 22:32:08;;;;;;;62.50;8.38;;;;;;;-148.24;0.00;102409.03;5044176;28;20028;-56
2023/06/23 22:34:34;;;;;;;91.80;10.65;;;;;;;-148.24;0.00;102409.03;5040610;28;20079;-54
2023/06/23 22:36:59;;;;;;;44.25;7.35;;;;;;;-148.24;0.00;102409.03;5042933;28;20490;-55
2023/06/23 22:39:25;;;;;;;46.08;7.20;;;;;;;-148.24;0.00;102409.03;5042535;28;20241;-55
2023/06/23 22:41:51;;;;;;;73.63;9.57;;;;;;;-148.24;0.00;102409.03;5038472;28;20128;-55
2023/06/23 22:44:16;;;;;;;75.35;9.35;;;;;;;-148.24;0.00;102409.03;5041149;28;20070;-55
2023/06/23 22:46:43;;;;;;;87.82;10.30;;;;;;;-148.24;0.00;102409.03;5040581;28;20037;-56
2023/06/23 22:49:09;;;;;;;75.88;8.80;;;;;;;-148.24;0.00;102409.03;5045206;28;20028;-56
2023/06/23 22:51:39;;;;;;;73.22;9.73;;;;;;;-148.24;0.00;102409.03;5040773;28;20044;-55
2023/06/23 22:54:07;;;;;;;70.15;8.75;;;;;;;-148.24;0.00;102409.03;5044213;28;20033;-56
2023/06/23 22:56:32;;;;;;;90.90;10.52;;;;;;;-148.24;0.00;102409.03;5040374;28;20365;-56
2023/06/23 22:58:58;;;;;;;78.45;9.45;;;;;;;-148.24;0.00;102409.03;5042962;28;20459;-57
2023/06/23 23:01:23;;;;;;;75.30;9.38;;;;;;;-148.24;0.00;102409.03;5042828;28;20040;-57
2023/06/23 23:03:50;;;;;;;132.18;13.07;;;;;;;-148.24;0.00;102409.03;5041110;28;20136;-57
2023/06/23 23:06:16;;;;;;;87.05;9.90;;;;;;;-148.24;0.00;102409.03;5044247;28;20403;-56
2023/06/23 23:08:42;;;;;;;124.40;12.95;;;;;;;-148.24;0.00;102409.03;5044204;28;20024;-58
2023/06/23 23:11:08;;;;;;;106.50;11.20;;;;;;;-148.24;0.00;102409.03;5047622;28;20429;-56
2023/06/23 23:13:33;;;;;;;87.75;10.13;;;;;;;-148.24;0.00;102409.03;5045320;28;20079;-54
2023/06/23 23:15:59;;;;;;;113.03;11.43;;;;;;;-148.24;0.00;102409.03;5045514;28;20102;-57
2023/06/23 23:18:24;;;;;;;90.75;9.75;;;;;;;-148.24;0.00;102409.03;5046018;28;20032;-56
2023/06/23 23:20:50;;;;;;;125.60;13.48;;;;;;;-148.24;0.00;102409.03;5043583;28;20059;-56
2023/06/23 23:23:15;;;;;;;77.07;9.57;;;;;;;-148.24;0.00;102409.03;5046138;28;20020;-55
2023/06/23 23:25:41;;;;;;;123.82;13.27;;;;;;;-148.24;0.00;102409.03;5044528;28;20044;-56
2023/06/23 23:28:10;;;;;;;81.45;9.95;;;;;;;-148.24;0.00;102409.03;5045585;28;20028;-56
